Wylie's Hourly Summary for Wednesday, April 19, 2017
Hour Temp
(f)
RH
(%)
Solar Rad.
(MJ/m2)
Rainfall
(in)
Wind
(mph)
4/19/2017 12:00 AM 67 79 0 0 3.8
4/19/2017 1:00 AM 66 82 0 0 3.64
4/19/2017 2:00 AM 65 92 0 0 3.93
4/19/2017 3:00 AM 65 99 0 0 4.08
4/19/2017 4:00 AM 65 100 0 0 5.79
4/19/2017 5:00 AM 65 100 0 0 6.64
4/19/2017 6:00 AM 65 100 0 0 7.2
4/19/2017 7:00 AM 65 95 0 0 6.8
4/19/2017 8:00 AM 65 96 0.11 0 5.81
4/19/2017 9:00 AM 67 92 0.28 0 5.5
4/19/2017 10:00 AM 68 83 0.67 0 6.88
4/19/2017 11:00 AM 69 79 0.93 0 6.64
4/19/2017 12:00 PM 72 70 1.79 0 7.25
4/19/2017 1:00 PM 75 63 2.11 0 6.8
4/19/2017 2:00 PM 77 59 3.03 0 9.22
4/19/2017 3:00 PM 79 54 2.57 0 9.1
4/19/2017 4:00 PM 79 54 2.03 0 9.65
4/19/2017 5:00 PM 80 54 1.95 0 8.82
4/19/2017 6:00 PM 80 53 1.27 0 8.12
4/19/2017 7:00 PM 79 58 0.67 0 7.96
4/19/2017 8:00 PM 78 60 0.14 0 5.38
4/19/2017 9:00 PM 77 60 0 0 7.05
4/19/2017 10:00 PM 75 68 0 0 8.59
4/19/2017 11:00 PM 73 72 0 0 8.84
Data Summary 71 75 17.55 0.00 6.81